createdAt,value
2022-10-01T00:02:18.626Z,7.00
2022-10-01T00:04:50.863Z,7.60
2022-10-01T00:07:20.342Z,7.13
2022-10-01T00:09:48.850Z,6.70
2022-10-01T00:12:16.983Z,7.67
2022-10-01T00:14:52.913Z,6.50
2022-10-01T00:17:21.123Z,6.73
2022-10-01T00:19:49.300Z,7.30
2022-10-01T00:22:19.053Z,6.60
2022-10-01T00:24:49.955Z,7.40
2022-10-01T00:27:18.274Z,6.47
2022-10-01T00:29:46.370Z,6.53
2022-10-01T00:32:14.511Z,6.53
2022-10-01T00:34:42.672Z,6.90
2022-10-01T00:37:10.895Z,6.63
2022-10-01T00:39:44.375Z,4.60
2022-10-01T00:42:19.866Z,5.40
2022-10-01T00:44:48.089Z,5.93
2022-10-01T00:47:22.906Z,5.80
2022-10-01T00:49:51.451Z,5.57
2022-10-01T00:52:22.279Z,4.60
2022-10-01T00:54:52.101Z,5.30
2022-10-01T00:57:23.289Z,5.17
2022-10-01T00:59:51.413Z,5.50
2022-10-01T01:02:20.003Z,4.63
2022-10-01T01:04:48.273Z,4.60
2022-10-01T01:07:16.393Z,5.10
2022-10-01T01:09:45.336Z,5.27
2022-10-01T01:12:25.959Z,4.87
2022-10-01T01:14:59.083Z,4.87
2022-10-01T01:17:31.211Z,4.87
2022-10-01T01:20:14.833Z,5.40
2022-10-01T01:22:44.790Z,5.00
2022-10-01T01:25:16.569Z,5.10
2022-10-01T01:27:46.181Z,4.67
2022-10-01T01:30:18.368Z,4.17
2022-10-01T01:32:48.697Z,4.47
2022-10-01T01:35:19.381Z,4.30
2022-10-01T01:37:51.734Z,3.90
2022-10-01T01:40:20.059Z,4.43
2022-10-01T01:42:48.428Z,3.87
2022-10-01T01:45:21.949Z,3.63
2022-10-01T01:47:50.020Z,4.10
2022-10-01T01:50:18.921Z,3.17
2022-10-01T01:52:47.189Z,3.80
2022-10-01T01:55:15.410Z,3.13
2022-10-01T01:57:44.798Z,3.13
2022-10-01T02:00:14.464Z,3.03
2022-10-01T02:02:45.467Z,3.20
2022-10-01T02:05:15.714Z,3.17
2022-10-01T02:08:12.347Z,3.40
2022-10-01T02:10:52.243Z,3.00
2022-10-01T02:13:26.733Z,3.10
2022-10-01T02:16:01.426Z,2.77
2022-10-01T02:18:38.521Z,3.30
2022-10-01T02:21:12.436Z,2.63
2022-10-01T02:23:44.127Z,2.83
2022-10-01T02:26:13.872Z,2.80
2022-10-01T02:28:42.116Z,2.90
2022-10-01T02:31:12.517Z,3.03
2022-10-01T02:33:42.655Z,3.20
2022-10-01T02:36:13.158Z,2.83
2022-10-01T02:38:42.762Z,2.90
2022-10-01T02:41:13.011Z,2.57
2022-10-01T02:43:43.186Z,2.90
2022-10-01T02:46:15.808Z,3.27
2022-10-01T02:48:45.633Z,3.87
2022-10-01T02:51:26.039Z,3.03
2022-10-01T02:53:56.618Z,3.83
2022-10-01T02:56:46.073Z,3.83
2022-10-01T02:59:17.405Z,4.10
2022-10-01T03:01:46.855Z,3.80
2022-10-01T03:04:23.234Z,3.63
2022-10-01T03:06:51.697Z,4.20
2022-10-01T03:09:23.056Z,3.93
2022-10-01T03:11:51.395Z,4.27
2022-10-01T03:14:19.587Z,4.13
2022-10-01T03:16:48.459Z,4.90
2022-10-01T03:19:18.030Z,5.23
2022-10-01T03:21:46.382Z,4.57
2022-10-01T03:24:14.704Z,4.53
2022-10-01T03:26:45.320Z,3.77
2022-10-01T03:29:13.577Z,5.23
2022-10-01T03:31:41.952Z,4.83
2022-10-01T03:34:10.341Z,4.83
2022-10-01T03:36:39.958Z,5.57
2022-10-01T03:39:08.206Z,4.80
2022-10-01T03:41:37.128Z,4.77
2022-10-01T03:44:05.520Z,5.37
2022-10-01T03:46:33.734Z,5.80
2022-10-01T03:49:02.069Z,5.30
2022-10-01T03:51:30.411Z,5.67
2022-10-01T03:54:03.007Z,5.07
2022-10-01T03:56:31.284Z,5.20
2022-10-01T03:58:59.485Z,4.83
2022-10-01T04:01:28.180Z,4.87
2022-10-01T04:03:56.566Z,5.23
2022-10-01T04:06:24.703Z,5.20
2022-10-01T04:08:52.956Z,5.10
2022-10-01T04:11:22.716Z,5.50
2022-10-01T04:13:50.882Z,4.47
2022-10-01T04:16:19.252Z,4.03
2022-10-01T04:18:47.523Z,4.60
2022-10-01T04:21:21.954Z,4.43
2022-10-01T04:23:51.320Z,5.00
2022-10-01T04:26:29.565Z,4.27
2022-10-01T04:29:07.832Z,4.57
2022-10-01T04:31:45.791Z,3.50
2022-10-01T04:34:14.114Z,3.57
2022-10-01T04:36:42.391Z,3.70
2022-10-01T04:39:10.645Z,2.87
2022-10-01T04:41:40.312Z,3.07
2022-10-01T04:44:10.407Z,3.07
2022-10-01T04:46:42.398Z,3.30
2022-10-01T04:49:10.547Z,3.20
2022-10-01T04:51:38.745Z,3.20
2022-10-01T04:54:14.483Z,2.83
2022-10-01T04:56:44.263Z,3.37
2022-10-01T04:59:12.697Z,3.43
2022-10-01T05:01:42.255Z,3.20
2022-10-01T05:04:10.592Z,2.73
2022-10-01T05:06:38.837Z,3.90
2022-10-01T05:09:07.117Z,3.60
2022-10-01T05:11:36.043Z,2.97
2022-10-01T05:14:05.863Z,2.97
2022-10-01T05:16:42.455Z,3.13
2022-10-01T05:19:10.775Z,3.37
2022-10-01T05:21:44.890Z,3.60
2022-10-01T05:24:35.425Z,3.10
2022-10-01T05:27:13.491Z,3.73
2022-10-01T05:29:44.851Z,3.07
2022-10-01T05:32:21.805Z,3.03
2022-10-01T05:34:55.616Z,3.17
2022-10-01T05:37:26.924Z,3.00
2022-10-01T05:39:55.006Z,3.70
2022-10-01T05:42:24.511Z,3.47
2022-10-01T05:44:54.169Z,4.03
2022-10-01T05:50:04.785Z,3.43
2022-10-01T05:52:33.162Z,3.53
2022-10-01T05:55:01.322Z,3.40
2022-10-01T05:57:29.970Z,4.20
2022-10-01T06:00:03.211Z,3.30
2022-10-01T06:02:37.485Z,3.50
2022-10-01T06:05:08.042Z,3.37
2022-10-01T06:07:39.461Z,3.37
2022-10-01T06:10:11.888Z,3.33
2022-10-01T06:12:40.222Z,3.27
2022-10-01T06:15:12.420Z,3.53
2022-10-01T06:17:44.958Z,3.00
2022-10-01T06:20:21.862Z,3.50
2022-10-01T06:23:08.357Z,3.20
2022-10-01T06:25:39.396Z,3.13
2022-10-01T06:28:08.456Z,3.83
2022-10-01T06:30:40.141Z,3.50
2022-10-01T06:33:09.284Z,3.63
2022-10-01T06:35:40.918Z,4.43
2022-10-01T06:38:09.556Z,2.93
2022-10-01T06:40:39.343Z,2.63
2022-10-01T06:43:08.450Z,3.50
2022-10-01T06:45:38.112Z,2.07
2022-10-01T06:48:09.153Z,2.47
2022-10-01T06:50:37.463Z,2.67
2022-10-01T06:53:05.909Z,2.60
2022-10-01T06:55:35.376Z,2.67
2022-10-01T06:58:04.885Z,3.30
2022-10-01T07:00:33.843Z,2.90
2022-10-01T07:03:02.042Z,3.33
2022-10-01T07:05:31.619Z,3.33
2022-10-01T07:07:59.925Z,3.10
2022-10-01T07:10:28.158Z,2.77
2022-10-01T07:13:07.289Z,3.27
2022-10-01T07:15:35.437Z,2.97
2022-10-01T07:18:03.653Z,2.67
2022-10-01T07:20:36.182Z,2.90
2022-10-01T07:23:04.450Z,2.90
2022-10-01T07:25:32.732Z,2.30
2022-10-01T07:28:01.986Z,2.87
2022-10-01T07:30:30.354Z,2.70
2022-10-01T07:32:58.698Z,2.47
2022-10-01T07:35:27.032Z,2.53
2022-10-01T07:37:56.711Z,2.60
2022-10-01T07:40:25.141Z,2.20
2022-10-01T07:42:56.317Z,2.77
2022-10-01T07:45:24.510Z,2.13
2022-10-01T07:48:02.870Z,2.53
2022-10-01T07:50:31.616Z,2.50
2022-10-01T07:53:02.290Z,2.73
2022-10-01T07:55:33.032Z,2.40
2022-10-01T07:58:07.577Z,2.23
2022-10-01T08:00:36.016Z,1.90
2022-10-01T08:03:12.256Z,2.37
2022-10-01T08:05:47.314Z,2.03
2022-10-01T08:08:22.638Z,2.57
2022-10-01T08:10:51.176Z,2.80
2022-10-01T08:13:20.498Z,2.60
2022-10-01T08:15:50.625Z,2.40
2022-10-01T08:18:22.549Z,3.10
2022-10-01T08:20:50.883Z,2.40
2022-10-01T08:23:19.438Z,2.33
2022-10-01T08:25:49.906Z,1.77
2022-10-01T08:28:18.453Z,1.77
2022-10-01T08:30:46.840Z,2.40
2022-10-01T08:33:16.694Z,2.13
2022-10-01T08:35:45.017Z,2.27
2022-10-01T08:38:15.781Z,2.27
2022-10-01T08:40:51.535Z,1.93
2022-10-01T08:43:38.770Z,2.83
2022-10-01T08:46:07.969Z,2.80
2022-10-01T08:48:44.841Z,2.20
2022-10-01T08:51:21.006Z,1.50
2022-10-01T08:53:51.007Z,1.90
2022-10-01T08:56:23.179Z,1.73
2022-10-01T08:58:53.708Z,1.80
2022-10-01T09:01:28.601Z,3.57
2022-10-01T09:03:56.997Z,2.07
2022-10-01T09:06:26.603Z,1.70
2022-10-01T09:09:17.102Z,1.87
2022-10-01T09:11:58.937Z,1.47
2022-10-01T09:14:38.891Z,2.20
2022-10-01T09:17:13.046Z,1.87
2022-10-01T09:19:55.043Z,2.40
2022-10-01T09:22:28.408Z,2.30
2022-10-01T09:25:00.751Z,1.67
2022-10-01T09:27:35.603Z,2.33
2022-10-01T09:30:23.428Z,2.00
2022-10-01T09:33:01.145Z,2.53
2022-10-01T09:35:43.668Z,1.93
2022-10-01T09:38:16.583Z,2.27
2022-10-01T09:40:51.142Z,2.47
2022-10-01T09:43:23.414Z,1.30
2022-10-01T09:45:52.062Z,1.97
2022-10-01T09:48:28.379Z,1.40
2022-10-01T09:50:59.181Z,2.03
2022-10-01T09:53:36.052Z,1.23
2022-10-01T09:56:12.779Z,1.83
2022-10-01T09:58:43.281Z,2.43
2022-10-01T10:01:22.489Z,1.87
2022-10-01T10:03:58.005Z,1.67
2022-10-01T10:06:43.896Z,2.13
2022-10-01T10:09:15.799Z,1.50
2022-10-01T10:11:44.110Z,2.00
2022-10-01T10:14:17.628Z,1.60
2022-10-01T10:16:48.852Z,1.73
2022-10-01T10:19:20.637Z,1.60
2022-10-01T10:21:53.158Z,2.63
2022-10-01T10:24:26.622Z,2.20
2022-10-01T10:27:03.457Z,2.13
2022-10-01T10:29:33.989Z,2.13
2022-10-01T10:32:23.288Z,1.97
2022-10-01T10:35:05.492Z,1.40
2022-10-01T10:37:40.982Z,1.47
2022-10-01T10:40:10.289Z,1.80
2022-10-01T10:42:39.487Z,1.80
2022-10-01T10:45:25.579Z,1.80
2022-10-01T10:47:55.292Z,1.87
2022-10-01T10:50:31.550Z,1.10
2022-10-01T10:53:24.481Z,2.03
2022-10-01T10:56:02.238Z,1.87
2022-10-01T10:58:33.584Z,2.00
2022-10-01T11:01:09.900Z,2.00
2022-10-01T11:03:43.501Z,1.80
2022-10-01T11:06:17.298Z,1.73
2022-10-01T11:08:45.914Z,2.13
2022-10-01T11:11:43.954Z,1.30
2022-10-01T11:14:23.770Z,1.77
2022-10-01T11:17:14.616Z,1.40
2022-10-01T11:19:55.990Z,1.43
2022-10-01T11:22:38.164Z,1.77
2022-10-01T11:25:24.461Z,2.23
2022-10-01T11:27:59.776Z,2.57
2022-10-01T11:30:29.977Z,2.13
2022-10-01T11:33:07.692Z,1.70
2022-10-01T11:35:47.020Z,1.53
2022-10-01T11:38:41.842Z,1.93
2022-10-01T11:41:33.083Z,1.80
2022-10-01T11:44:03.579Z,2.70
2022-10-01T11:46:46.672Z,2.10
2022-10-01T11:49:29.915Z,1.50
2022-10-01T11:52:11.872Z,1.70
2022-10-01T11:54:41.827Z,1.83
2022-10-01T11:57:28.318Z,1.20
2022-10-01T12:00:27.928Z,1.83
2022-10-01T12:03:01.560Z,1.37
2022-10-01T12:05:37.491Z,1.40
2022-10-01T12:08:10.621Z,1.73
2022-10-01T12:10:45.821Z,1.63
2022-10-01T12:13:20.928Z,1.67
2022-10-01T12:15:58.605Z,2.00
2022-10-01T12:18:35.198Z,1.73
2022-10-01T12:21:06.579Z,2.10
2022-10-01T12:23:36.752Z,1.93
2022-10-01T12:26:09.556Z,1.50
2022-10-01T12:28:40.855Z,2.03
2022-10-01T12:31:20.893Z,1.30
2022-10-01T12:34:03.616Z,1.83
2022-10-01T12:36:44.930Z,2.37
2022-10-01T12:39:36.085Z,1.87
2022-10-01T12:42:16.366Z,1.47
2022-10-01T12:47:43.921Z,1.87
2022-10-01T12:50:23.668Z,1.77
2022-10-01T12:53:01.113Z,1.90
2022-10-01T12:55:56.662Z,1.40
2022-10-01T12:58:52.410Z,1.77
2022-10-01T13:01:30.939Z,1.93
2022-10-01T13:04:36.300Z,2.00
2022-10-01T13:07:25.714Z,2.03
2022-10-01T13:10:02.934Z,2.00
2022-10-01T13:12:46.667Z,1.33
2022-10-01T13:15:37.195Z,2.23
2022-10-01T13:18:34.990Z,2.47
2022-10-01T13:21:11.768Z,2.20
2022-10-01T13:23:52.134Z,1.83
2022-10-01T13:26:32.650Z,1.70
2022-10-01T13:29:05.634Z,2.23
2022-10-01T13:31:38.519Z,2.13
2022-10-01T13:34:41.782Z,1.73
2022-10-01T13:37:20.558Z,2.20
2022-10-01T13:39:55.775Z,2.00
2022-10-01T13:42:40.506Z,2.00
2022-10-01T13:45:11.018Z,1.93
2022-10-01T13:48:05.111Z,1.53
2022-10-01T13:50:43.930Z,2.00
2022-10-01T13:53:19.568Z,1.80
2022-10-01T13:56:03.598Z,1.37
2022-10-01T14:01:31.742Z,2.63
2022-10-01T14:04:05.266Z,2.10
2022-10-01T14:06:39.637Z,1.77
2022-10-01T14:09:14.061Z,1.93
2022-10-01T14:12:03.578Z,1.90
2022-10-01T14:14:53.249Z,2.23
2022-10-01T14:17:29.866Z,1.60
2022-10-01T14:20:18.015Z,1.30
2022-10-01T14:23:06.057Z,2.03
2022-10-01T14:25:42.534Z,1.60
2022-10-01T14:28:38.290Z,2.10
2022-10-01T14:31:23.037Z,1.40
2022-10-01T14:34:23.686Z,1.30
2022-10-01T14:36:53.345Z,1.43
2022-10-01T14:39:27.319Z,1.50
2022-10-01T14:42:05.509Z,1.50
2022-10-01T14:44:39.251Z,1.70
2022-10-01T14:47:17.540Z,0.97
2022-10-01T14:49:49.467Z,1.73
2022-10-01T14:52:36.411Z,1.23
2022-10-01T14:55:10.147Z,0.70
2022-10-01T14:57:40.134Z,1.40
2022-10-01T15:00:14.153Z,1.17
2022-10-01T15:02:50.121Z,1.30
2022-10-01T15:05:32.564Z,1.27
2022-10-01T15:08:12.179Z,2.10
2022-10-01T15:10:49.704Z,1.97
2022-10-01T15:13:25.283Z,2.00
2022-10-01T15:15:53.919Z,1.97
2022-10-01T15:18:35.130Z,1.20
2022-10-01T15:21:09.491Z,1.70
2022-10-01T15:23:39.048Z,1.73
2022-10-01T15:26:14.985Z,2.20
2022-10-01T15:28:46.403Z,1.27
2022-10-01T15:31:15.787Z,1.20
2022-10-01T15:33:49.664Z,1.87
2022-10-01T15:36:18.540Z,1.43
2022-10-01T15:38:47.053Z,1.30
2022-10-01T15:41:33.383Z,2.17
2022-10-01T15:44:06.161Z,1.53
2022-10-01T15:46:45.190Z,1.77
2022-10-01T15:49:24.999Z,1.83
2022-10-01T15:52:13.475Z,1.50
2022-10-01T15:54:45.293Z,1.83
2022-10-01T15:57:20.447Z,1.37
2022-10-01T15:59:50.749Z,1.50
2022-10-01T16:02:21.250Z,1.60
2022-10-01T16:04:52.952Z,1.60
2022-10-01T16:07:26.941Z,1.60
2022-10-01T16:09:57.400Z,1.97
2022-10-01T16:12:29.451Z,2.07
2022-10-01T16:15:07.452Z,1.73
2022-10-01T16:17:54.655Z,1.53
2022-10-01T16:20:47.901Z,1.97
2022-10-01T16:23:53.514Z,1.90
2022-10-01T16:26:36.827Z,1.33
2022-10-01T16:29:21.273Z,1.47
2022-10-01T16:31:55.174Z,1.53
2022-10-01T16:34:43.027Z,1.60
2022-10-01T16:37:14.360Z,1.47
2022-10-01T16:39:45.389Z,1.57
2022-10-01T16:42:24.250Z,1.30
2022-10-01T16:45:01.990Z,1.90
2022-10-01T16:47:41.608Z,2.13
2022-10-01T16:50:12.123Z,2.20
2022-10-01T16:52:42.093Z,1.93
2022-10-01T16:55:20.029Z,1.40
2022-10-01T16:57:54.572Z,1.90
2022-10-01T17:00:23.978Z,2.53
2022-10-01T17:02:52.931Z,2.50
2022-10-01T17:05:32.003Z,1.80
2022-10-01T17:08:06.400Z,1.40
2022-10-01T17:10:39.605Z,2.67
2022-10-01T17:13:07.894Z,1.57
2022-10-01T17:15:36.795Z,2.63
2022-10-01T17:18:12.429Z,1.60
2022-10-01T17:20:43.507Z,1.67
2022-10-01T17:23:13.230Z,1.77
2022-10-01T17:25:43.791Z,3.23
2022-10-01T17:28:16.254Z,2.27
2022-10-01T17:30:46.577Z,2.27
2022-10-01T17:33:24.894Z,2.30
2022-10-01T17:35:58.766Z,1.83
2022-10-01T17:38:28.684Z,1.60
2022-10-01T17:40:59.282Z,1.67
2022-10-01T17:43:33.667Z,2.80
2022-10-01T17:46:02.431Z,2.03
2022-10-01T17:48:36.875Z,1.90
2022-10-01T17:51:06.032Z,2.57
2022-10-01T17:53:42.549Z,2.00
2022-10-01T17:56:12.083Z,2.40
2022-10-01T17:58:44.294Z,2.70
2022-10-01T18:01:16.638Z,2.43
2022-10-01T18:03:46.386Z,3.30
2022-10-01T18:06:16.394Z,1.83
2022-10-01T18:09:01.202Z,2.47
2022-10-01T18:11:29.662Z,2.10
2022-10-01T18:13:58.030Z,2.60
2022-10-01T18:16:28.472Z,1.97
2022-10-01T18:21:46.999Z,2.63
2022-10-01T18:24:20.873Z,2.30
2022-10-01T18:26:49.516Z,1.87
2022-10-01T18:29:20.617Z,3.17
2022-10-01T18:32:02.991Z,3.17
2022-10-01T18:34:32.910Z,2.20
2022-10-01T18:37:02.903Z,2.37
2022-10-01T18:39:36.537Z,2.27
2022-10-01T18:42:14.947Z,2.60
2022-10-01T18:44:43.247Z,2.10
2022-10-01T18:47:17.191Z,2.13
2022-10-01T18:49:59.510Z,2.13
2022-10-01T18:52:36.713Z,2.00
2022-10-01T18:55:35.133Z,2.60
2022-10-01T18:58:13.781Z,2.47
2022-10-01T19:00:47.149Z,3.07
2022-10-01T19:03:54.818Z,3.00
2022-10-01T19:06:38.692Z,2.43
2022-10-01T19:09:17.092Z,3.00
2022-10-01T19:11:52.243Z,2.20
2022-10-01T19:14:35.240Z,2.67
2022-10-01T19:17:08.114Z,2.60
2022-10-01T19:19:38.776Z,2.03
2022-10-01T19:22:11.544Z,3.57
2022-10-01T19:24:49.024Z,3.97
2022-10-01T19:27:26.804Z,3.73
2022-10-01T19:30:03.582Z,3.63
2022-10-01T19:32:37.177Z,3.67
2022-10-01T19:35:08.415Z,2.90
2022-10-01T19:37:38.881Z,2.50
2022-10-01T19:40:14.978Z,2.33
2022-10-01T19:42:48.219Z,3.07
2022-10-01T19:45:20.920Z,2.83
2022-10-01T19:47:54.909Z,3.80
2022-10-01T19:50:25.082Z,2.77
2022-10-01T19:52:57.755Z,2.53
2022-10-01T19:55:26.673Z,2.43
2022-10-01T19:57:57.800Z,2.73
2022-10-01T20:00:28.634Z,2.60
2022-10-01T20:03:01.604Z,2.90
2022-10-01T20:05:33.719Z,2.30
2022-10-01T20:08:04.953Z,2.70
2022-10-01T20:10:41.425Z,2.60
2022-10-01T20:13:41.628Z,3.30
2022-10-01T20:16:16.176Z,2.90
2022-10-01T20:18:50.240Z,2.43
2022-10-01T20:21:29.896Z,3.00
2022-10-01T20:24:03.127Z,2.97
2022-10-01T20:26:33.168Z,3.97
2022-10-01T20:29:29.220Z,2.43
2022-10-01T20:32:06.781Z,3.17
2022-10-01T20:34:38.965Z,2.67
2022-10-01T20:37:17.433Z,3.50
2022-10-01T20:39:49.168Z,4.00
2022-10-01T20:42:23.635Z,3.27
2022-10-01T20:44:55.326Z,3.00
2022-10-01T20:47:34.239Z,3.33
2022-10-01T20:50:09.207Z,2.87
2022-10-01T20:52:46.070Z,3.30
2022-10-01T20:55:39.021Z,2.63
2022-10-01T20:58:10.942Z,3.00
2022-10-01T21:00:43.964Z,3.00
2022-10-01T21:03:19.740Z,3.13
2022-10-01T21:05:51.019Z,3.03
2022-10-01T21:08:38.554Z,3.33
2022-10-01T21:11:08.894Z,2.93
2022-10-01T21:13:47.906Z,2.73
2022-10-01T21:16:38.714Z,2.87
2022-10-01T21:19:15.827Z,3.33
2022-10-01T21:21:46.772Z,3.13
2022-10-01T21:24:26.423Z,3.27
2022-10-01T21:27:02.753Z,3.53
2022-10-01T21:29:43.905Z,2.93
2022-10-01T21:32:19.675Z,3.33
2022-10-01T21:34:55.458Z,3.30
2022-10-01T21:37:26.308Z,2.93
2022-10-01T21:40:07.510Z,2.80
2022-10-01T21:42:39.604Z,4.60
2022-10-01T21:45:30.862Z,3.63
2022-10-01T21:48:21.132Z,3.50
2022-10-01T21:50:53.377Z,3.50
2022-10-01T21:53:52.575Z,3.50
2022-10-01T21:56:40.770Z,3.33
2022-10-01T21:59:22.028Z,3.40
2022-10-01T22:02:04.692Z,3.70
2022-10-01T22:04:39.649Z,3.73
2022-10-01T22:07:19.191Z,4.10
2022-10-01T22:09:56.134Z,3.47
2022-10-01T22:12:25.259Z,3.03
2022-10-01T22:14:59.451Z,3.73
2022-10-01T22:17:29.039Z,4.00
2022-10-01T22:20:02.461Z,3.13
2022-10-01T22:22:31.582Z,3.47
2022-10-01T22:25:01.595Z,3.83
2022-10-01T22:27:33.579Z,3.60
2022-10-01T22:30:05.947Z,4.33
2022-10-01T22:32:44.673Z,3.23
2022-10-01T22:35:20.220Z,3.23
2022-10-01T22:37:54.497Z,2.90
2022-10-01T22:40:25.859Z,3.47
2022-10-01T22:43:00.062Z,4.13
2022-10-01T22:45:31.655Z,2.77
2022-10-01T22:48:05.433Z,2.73
2022-10-01T22:50:47.656Z,2.50
2022-10-01T22:53:27.760Z,2.80
2022-10-01T22:55:58.907Z,2.27
2022-10-01T22:58:35.091Z,2.03
2022-10-01T23:01:11.788Z,2.20
2022-10-01T23:03:50.960Z,3.30
2022-10-01T23:06:27.280Z,2.60
2022-10-01T23:09:01.754Z,2.40
2022-10-01T23:11:34.629Z,1.70
2022-10-01T23:14:08.296Z,1.90
2022-10-01T23:16:44.063Z,1.30
2022-10-01T23:19:27.763Z,1.40
2022-10-01T23:22:05.593Z,1.33
2022-10-01T23:24:48.362Z,1.30
2022-10-01T23:27:22.722Z,1.13
2022-10-01T23:30:03.762Z,1.53
2022-10-01T23:32:52.613Z,1.80
2022-10-01T23:35:21.610Z,1.50
2022-10-01T23:38:09.299Z,1.00
2022-10-01T23:40:44.394Z,1.10
2022-10-01T23:43:16.516Z,1.17
2022-10-01T23:45:46.092Z,1.17
2022-10-01T23:48:23.400Z,1.40
2022-10-01T23:50:55.715Z,1.17
2022-10-01T23:53:29.442Z,1.37
2022-10-01T23:56:18.937Z,1.43
2022-10-01T23:58:49.196Z,1.37
